createdAt,value
2022-09-30T00:00:33.180Z,84.12
2022-09-30T00:02:59.619Z,84.18
2022-09-30T00:05:26.162Z,83.85
2022-09-30T00:07:52.632Z,83.20
2022-09-30T00:10:19.301Z,83.14
2022-09-30T00:12:46.641Z,83.17
2022-09-30T00:15:13.140Z,83.39
2022-09-30T00:17:39.542Z,83.64
2022-09-30T00:20:06.531Z,83.47
2022-09-30T00:22:32.940Z,83.22
2022-09-30T00:24:59.320Z,83.65
2022-09-30T00:27:25.716Z,83.55
2022-09-30T00:29:52.321Z,83.50
2022-09-30T00:32:18.868Z,84.21
2022-09-30T00:34:45.316Z,83.75
2022-09-30T00:37:15.043Z,83.92
2022-09-30T00:39:41.479Z,84.31
2022-09-30T00:42:13.513Z,83.70
2022-09-30T00:44:44.743Z,83.79
2022-09-30T00:47:29.877Z,83.50
2022-09-30T00:50:01.519Z,84.07
2022-09-30T00:52:28.795Z,83.65
2022-09-30T00:54:58.183Z,83.15
2022-09-30T00:57:27.256Z,83.18
2022-09-30T00:59:53.796Z,83.92
2022-09-30T01:02:20.705Z,83.71
2022-09-30T01:04:47.744Z,84.11
2022-09-30T01:07:15.119Z,83.17
2022-09-30T01:09:43.311Z,83.32
2022-09-30T01:12:20.473Z,83.63
2022-09-30T01:14:49.000Z,82.96
2022-09-30T01:17:32.818Z,82.76
2022-09-30T01:20:27.021Z,83.86
2022-09-30T01:23:31.986Z,84.24
2022-09-30T01:26:31.544Z,84.74
2022-09-30T01:29:16.710Z,84.23
2022-09-30T01:31:53.935Z,84.85
2022-09-30T01:34:36.275Z,85.42
2022-09-30T01:37:25.152Z,85.71
2022-09-30T01:40:03.493Z,85.21
2022-09-30T01:42:46.128Z,85.28
2022-09-30T01:45:33.009Z,85.71
2022-09-30T01:48:21.291Z,84.64
2022-09-30T01:50:58.818Z,85.33
2022-09-30T01:53:30.361Z,86.08
2022-09-30T01:56:00.453Z,85.70
2022-09-30T01:58:50.676Z,85.16
2022-09-30T02:01:25.299Z,84.82
2022-09-30T02:03:59.444Z,84.32
2022-09-30T02:06:33.506Z,84.07
2022-09-30T02:09:09.268Z,84.31
2022-09-30T02:11:37.933Z,84.41
2022-09-30T02:14:07.417Z,84.78
2022-09-30T02:16:52.330Z,84.09
2022-09-30T02:19:39.772Z,85.12
2022-09-30T02:22:30.784Z,85.60
2022-09-30T02:25:01.489Z,85.31
2022-09-30T02:27:40.372Z,84.23
2022-09-30T02:30:09.223Z,82.94
2022-09-30T02:32:45.782Z,82.79
2022-09-30T02:35:20.131Z,83.89
2022-09-30T02:37:54.635Z,83.64
2022-09-30T02:40:36.494Z,84.46
2022-09-30T02:43:05.278Z,83.79
2022-09-30T02:45:43.724Z,82.91
2022-09-30T02:48:21.992Z,82.88
2022-09-30T02:51:23.705Z,83.47
2022-09-30T02:54:11.154Z,83.68
2022-09-30T02:56:51.277Z,83.26
2022-09-30T02:59:18.226Z,82.00
2022-09-30T03:01:45.722Z,82.96
2022-09-30T03:04:16.043Z,83.84
2022-09-30T03:06:42.669Z,83.29
2022-09-30T03:09:09.833Z,83.55
2022-09-30T03:11:38.309Z,83.44
2022-09-30T03:14:04.637Z,84.16
2022-09-30T03:17:01.077Z,83.14
2022-09-30T03:20:02.834Z,84.29
2022-09-30T03:22:41.050Z,84.50
2022-09-30T03:25:23.227Z,83.79
2022-09-30T03:28:14.493Z,82.60
2022-09-30T03:31:08.997Z,82.98
2022-09-30T03:33:44.310Z,83.17
2022-09-30T03:36:33.752Z,82.63
2022-09-30T03:39:28.912Z,82.80
2022-09-30T03:42:23.074Z,82.85
2022-09-30T03:45:02.513Z,82.32
2022-09-30T03:47:32.178Z,82.28
2022-09-30T03:50:02.975Z,82.24
2022-09-30T03:52:32.031Z,82.01
2022-09-30T03:55:00.735Z,82.24
2022-09-30T03:57:30.822Z,83.05
2022-09-30T03:59:58.229Z,83.07
2022-09-30T04:02:26.212Z,82.31
2022-09-30T04:04:52.793Z,83.13
2022-09-30T04:07:19.491Z,83.19
2022-09-30T04:09:45.942Z,83.58
2022-09-30T04:12:12.525Z,83.70
2022-09-30T04:14:38.956Z,83.76
2022-09-30T04:17:06.194Z,82.85
2022-09-30T04:19:38.085Z,82.62
2022-09-30T04:22:04.530Z,82.53
2022-09-30T04:24:30.891Z,82.31
2022-09-30T04:26:57.491Z,82.32
2022-09-30T04:29:24.995Z,81.56
2022-09-30T04:31:51.479Z,82.43
2022-09-30T04:34:17.851Z,82.12
2022-09-30T04:36:44.776Z,81.81
2022-09-30T04:39:11.176Z,80.66
2022-09-30T04:41:38.296Z,81.07
2022-09-30T04:44:07.434Z,81.72
2022-09-30T04:46:36.560Z,81.96
2022-09-30T04:49:09.059Z,82.79
2022-09-30T04:51:36.172Z,82.61
2022-09-30T04:54:03.280Z,82.71
2022-09-30T04:56:29.783Z,81.91
2022-09-30T04:58:56.203Z,82.13
2022-09-30T05:01:23.434Z,81.55
2022-09-30T05:03:50.676Z,82.50
2022-09-30T05:06:17.224Z,82.43
2022-09-30T05:08:46.186Z,81.98
2022-09-30T05:11:21.142Z,81.05
2022-09-30T05:13:48.649Z,81.65
2022-09-30T05:16:16.231Z,82.19
2022-09-30T05:18:45.647Z,81.68
2022-09-30T05:21:14.284Z,81.68
2022-09-30T05:23:40.809Z,81.64
2022-09-30T05:26:11.965Z,81.87
2022-09-30T05:28:39.571Z,81.73
2022-09-30T05:31:06.448Z,81.05
2022-09-30T05:33:34.741Z,81.31
2022-09-30T05:36:03.358Z,81.22
2022-09-30T05:38:30.098Z,81.43
2022-09-30T05:40:56.750Z,81.78
2022-09-30T05:43:23.866Z,81.50
2022-09-30T05:45:55.375Z,81.32
2022-09-30T05:48:23.360Z,80.72
2022-09-30T05:50:54.372Z,81.40
2022-09-30T05:53:20.856Z,81.05
2022-09-30T05:55:48.137Z,81.02
2022-09-30T05:58:15.249Z,81.11
2022-09-30T06:00:43.305Z,80.71
2022-09-30T06:03:09.758Z,81.19
2022-09-30T06:05:37.019Z,81.40
2022-09-30T06:08:04.385Z,81.49
2022-09-30T06:10:30.912Z,81.34
2022-09-30T06:12:59.045Z,80.89
2022-09-30T06:15:26.871Z,81.46
2022-09-30T06:17:54.377Z,81.63
2022-09-30T06:20:20.889Z,81.99
2022-09-30T06:22:47.340Z,80.96
2022-09-30T06:25:14.383Z,80.56
2022-09-30T06:27:44.458Z,80.41
2022-09-30T06:30:11.344Z,80.62
2022-09-30T06:32:37.806Z,80.06
2022-09-30T06:35:04.452Z,79.57
2022-09-30T06:37:30.861Z,79.59
2022-09-30T06:39:57.265Z,79.17
2022-09-30T06:42:24.903Z,78.71
2022-09-30T06:44:53.445Z,78.52
2022-09-30T06:47:25.068Z,78.08
2022-09-30T06:49:52.959Z,78.78
2022-09-30T06:52:20.063Z,76.46
2022-09-30T06:54:48.520Z,76.20
2022-09-30T06:57:14.885Z,76.13
2022-09-30T06:59:41.288Z,75.52
2022-09-30T07:02:11.239Z,75.33
2022-09-30T07:04:37.818Z,74.50
2022-09-30T07:07:04.322Z,74.28
2022-09-30T07:09:32.035Z,74.43
2022-09-30T07:11:58.647Z,73.80
2022-09-30T07:14:25.347Z,74.72
2022-09-30T07:16:52.932Z,76.38
2022-09-30T07:19:22.831Z,75.77
2022-09-30T07:21:50.319Z,74.70
2022-09-30T07:24:17.465Z,76.11
2022-09-30T07:26:45.316Z,76.18
2022-09-30T07:29:13.760Z,75.29
2022-09-30T07:31:40.929Z,74.17
2022-09-30T07:34:09.223Z,73.24
2022-09-30T07:36:38.148Z,71.90
2022-09-30T07:39:07.580Z,70.72
2022-09-30T07:41:38.794Z,69.20
2022-09-30T07:44:06.319Z,69.84
2022-09-30T07:46:34.400Z,70.20
2022-09-30T07:49:03.947Z,69.91
2022-09-30T07:51:37.284Z,70.16
2022-09-30T07:54:16.102Z,70.08
2022-09-30T07:57:10.093Z,70.74
2022-09-30T07:59:31.675Z,71.29
2022-09-30T08:01:58.590Z,70.09
2022-09-30T08:07:17.856Z,69.65
2022-09-30T08:09:44.673Z,69.50
2022-09-30T08:12:11.130Z,67.82
2022-09-30T08:14:37.665Z,65.78
2022-09-30T08:17:04.462Z,64.32
2022-09-30T08:19:31.303Z,65.09
2022-09-30T08:21:58.075Z,64.44
2022-09-30T08:24:26.255Z,64.79
2022-09-30T08:26:53.182Z,67.07
2022-09-30T08:29:35.839Z,68.26
2022-09-30T08:32:06.693Z,69.22
2022-09-30T08:34:35.260Z,71.10
2022-09-30T08:37:04.959Z,71.08
2022-09-30T08:39:35.129Z,70.23
2022-09-30T08:42:13.931Z,69.30
2022-09-30T08:44:48.918Z,67.23
2022-09-30T08:47:53.945Z,64.93
2022-09-30T08:50:50.039Z,65.38
2022-09-30T08:53:26.512Z,65.43
2022-09-30T08:55:57.126Z,63.15
2022-09-30T08:58:28.356Z,63.08
2022-09-30T09:01:05.358Z,63.00
2022-09-30T09:03:34.073Z,62.42
2022-09-30T09:06:18.121Z,60.59
2022-09-30T09:09:10.613Z,61.78
2022-09-30T09:11:52.250Z,62.62
2022-09-30T09:14:32.829Z,62.49
2022-09-30T09:17:15.972Z,62.47
2022-09-30T09:19:51.377Z,60.25
2022-09-30T09:22:22.447Z,59.19
2022-09-30T09:24:53.377Z,57.44
2022-09-30T09:27:26.228Z,57.42
2022-09-30T09:30:07.231Z,55.94
2022-09-30T09:32:35.356Z,55.41
2022-09-30T09:35:12.737Z,55.87
2022-09-30T09:38:00.728Z,56.26
2022-09-30T09:40:44.930Z,57.35
2022-09-30T09:43:24.941Z,56.72
2022-09-30T09:46:10.765Z,55.45
2022-09-30T09:48:38.074Z,55.28
2022-09-30T09:51:23.007Z,53.54
2022-09-30T09:53:53.621Z,49.33
2022-09-30T09:56:24.713Z,50.89
2022-09-30T09:59:08.943Z,51.20
2022-09-30T10:01:47.606Z,52.09
2022-09-30T10:04:19.517Z,52.55
2022-09-30T10:06:52.241Z,51.02
2022-09-30T10:09:26.655Z,49.52
2022-09-30T10:12:05.211Z,50.36
2022-09-30T10:14:46.065Z,50.27
2022-09-30T10:17:21.512Z,51.09
2022-09-30T10:19:54.150Z,53.08
2022-09-30T10:22:26.969Z,50.96
2022-09-30T10:25:10.038Z,51.99
2022-09-30T10:27:36.850Z,52.96
2022-09-30T10:30:04.098Z,51.91
2022-09-30T10:32:32.040Z,51.59
2022-09-30T10:35:24.119Z,51.18
2022-09-30T10:37:53.041Z,52.64
2022-09-30T10:40:23.109Z,51.11
2022-09-30T10:42:49.618Z,51.68
2022-09-30T10:45:32.910Z,52.07
2022-09-30T10:48:03.446Z,52.37
2022-09-30T10:50:29.901Z,53.36
2022-09-30T10:52:59.132Z,54.40
2022-09-30T10:55:31.523Z,54.47
2022-09-30T10:58:20.827Z,55.18
2022-09-30T11:00:52.856Z,55.86
2022-09-30T11:03:29.547Z,55.84
2022-09-30T11:05:59.564Z,54.22
2022-09-30T11:08:47.310Z,56.75
2022-09-30T11:11:27.761Z,54.98
2022-09-30T11:14:13.990Z,56.75
2022-09-30T11:17:00.363Z,56.08
2022-09-30T11:19:44.094Z,56.23
2022-09-30T11:22:35.176Z,57.86
2022-09-30T11:25:01.885Z,56.03
2022-09-30T11:27:50.397Z,53.78
2022-09-30T11:30:24.109Z,52.12
2022-09-30T11:32:56.787Z,53.66
2022-09-30T11:35:42.953Z,55.00
2022-09-30T11:38:42.081Z,55.95
2022-09-30T11:41:26.348Z,56.21
2022-09-30T11:44:24.681Z,54.55
2022-09-30T11:47:11.972Z,56.32
2022-09-30T11:50:04.953Z,56.67
2022-09-30T11:52:56.482Z,55.97
2022-09-30T11:55:58.149Z,54.76
2022-09-30T11:58:41.058Z,53.07
2022-09-30T12:01:43.898Z,53.18
2022-09-30T12:04:18.542Z,53.93
2022-09-30T12:07:03.945Z,55.18
2022-09-30T12:09:45.765Z,55.40
2022-09-30T12:12:16.658Z,54.38
2022-09-30T12:14:51.550Z,56.66
2022-09-30T12:17:31.282Z,56.09
2022-09-30T12:20:05.193Z,54.95
2022-09-30T12:22:41.511Z,54.28
2022-09-30T12:25:31.744Z,54.57
2022-09-30T12:28:51.220Z,55.47
2022-09-30T12:31:45.456Z,53.64
2022-09-30T12:34:44.431Z,52.06
2022-09-30T12:37:29.390Z,52.18
2022-09-30T12:40:08.163Z,49.74
2022-09-30T12:43:15.584Z,48.58
2022-09-30T12:46:04.887Z,48.20
2022-09-30T12:48:46.769Z,49.20
2022-09-30T12:51:24.323Z,49.35
2022-09-30T12:53:58.831Z,51.15
2022-09-30T12:56:29.659Z,49.65
2022-09-30T12:58:57.842Z,49.42
2022-09-30T13:01:29.821Z,50.80
2022-09-30T13:04:02.013Z,49.92
2022-09-30T13:06:48.393Z,51.20
2022-09-30T13:09:22.403Z,54.73
2022-09-30T13:12:31.620Z,54.98
2022-09-30T13:15:37.418Z,55.01
2022-09-30T13:18:19.179Z,54.98
2022-09-30T13:20:56.284Z,55.33
2022-09-30T13:23:42.445Z,55.23
2022-09-30T13:26:33.347Z,55.10
2022-09-30T13:29:00.029Z,54.21
2022-09-30T13:31:28.667Z,52.44
2022-09-30T13:34:04.013Z,53.21
2022-09-30T13:36:52.483Z,52.60
2022-09-30T13:39:25.934Z,52.89
2022-09-30T13:42:04.988Z,53.51
2022-09-30T13:44:57.582Z,51.39
2022-09-30T13:47:27.298Z,49.99
2022-09-30T13:50:04.366Z,49.78
2022-09-30T13:52:34.360Z,50.33
2022-09-30T13:55:16.775Z,49.05
2022-09-30T13:58:11.032Z,48.82
2022-09-30T14:01:04.904Z,48.01
2022-09-30T14:03:52.975Z,48.33
2022-09-30T14:06:46.288Z,48.11
2022-09-30T14:09:12.815Z,48.57
2022-09-30T14:12:02.855Z,49.81
2022-09-30T14:14:44.489Z,50.21
2022-09-30T14:17:36.880Z,49.76
2022-09-30T14:20:06.354Z,49.96
2022-09-30T14:22:35.950Z,51.13
2022-09-30T14:25:03.649Z,51.58
2022-09-30T14:27:55.476Z,51.92
2022-09-30T14:30:24.551Z,51.36
2022-09-30T14:32:55.717Z,50.94
2022-09-30T14:35:31.294Z,51.05
2022-09-30T14:38:02.256Z,49.92
2022-09-30T14:40:34.016Z,50.73
2022-09-30T14:43:06.708Z,50.72
2022-09-30T14:45:37.000Z,50.77
2022-09-30T14:48:10.223Z,51.67
2022-09-30T14:50:48.244Z,51.41
2022-09-30T14:53:29.633Z,52.29
2022-09-30T14:55:57.037Z,51.52
2022-09-30T14:58:30.630Z,52.66
2022-09-30T15:01:08.176Z,52.48
2022-09-30T15:03:40.519Z,52.62
2022-09-30T15:06:20.898Z,55.03
2022-09-30T15:08:49.151Z,55.11
2022-09-30T15:11:21.382Z,54.96
2022-09-30T15:13:51.681Z,55.54
2022-09-30T15:16:30.286Z,55.33
2022-09-30T15:18:57.733Z,54.51
2022-09-30T15:21:25.381Z,55.94
2022-09-30T15:23:55.401Z,53.60
2022-09-30T15:26:24.175Z,54.20
2022-09-30T15:28:51.275Z,52.25
2022-09-30T15:31:23.573Z,51.08
2022-09-30T15:34:01.329Z,51.39
2022-09-30T15:36:27.962Z,51.80
2022-09-30T15:38:54.480Z,51.84
2022-09-30T15:41:21.086Z,51.62
2022-09-30T15:43:52.673Z,52.16
2022-09-30T15:46:30.222Z,51.08
2022-09-30T15:49:02.161Z,51.37
2022-09-30T15:51:38.122Z,50.96
2022-09-30T15:54:23.878Z,50.59
2022-09-30T15:56:50.411Z,51.01
2022-09-30T15:59:16.821Z,51.02
2022-09-30T16:01:43.309Z,50.73
2022-09-30T16:04:24.482Z,51.13
2022-09-30T16:06:53.531Z,52.10
2022-09-30T16:09:19.878Z,52.20
2022-09-30T16:11:53.837Z,53.17
2022-09-30T16:14:28.275Z,53.54
2022-09-30T16:16:58.308Z,53.54
2022-09-30T16:19:26.227Z,54.18
2022-09-30T16:21:54.825Z,53.79
2022-09-30T16:24:21.153Z,54.77
2022-09-30T16:26:49.234Z,54.40
2022-09-30T16:29:17.861Z,55.18
2022-09-30T16:31:46.687Z,55.17
2022-09-30T16:34:33.328Z,56.26
2022-09-30T16:37:14.670Z,56.80
2022-09-30T16:39:41.094Z,57.41
2022-09-30T16:42:13.769Z,57.96
2022-09-30T16:44:42.290Z,58.38
2022-09-30T16:47:13.036Z,59.19
2022-09-30T16:49:40.269Z,60.17
2022-09-30T16:52:06.633Z,60.57
2022-09-30T16:54:33.127Z,60.94
2022-09-30T16:57:00.942Z,61.02
2022-09-30T16:59:27.595Z,61.72
2022-09-30T17:01:54.085Z,62.31
2022-09-30T17:04:20.856Z,62.81
2022-09-30T17:06:47.355Z,63.10
2022-09-30T17:09:14.028Z,62.95
2022-09-30T17:11:40.410Z,63.11
2022-09-30T17:14:06.857Z,63.54
2022-09-30T17:16:34.174Z,64.20
2022-09-30T17:19:00.851Z,64.83
2022-09-30T17:21:27.321Z,65.54
2022-09-30T17:23:55.122Z,66.28
2022-09-30T17:26:21.763Z,66.80
2022-09-30T17:28:48.212Z,66.89
2022-09-30T17:31:15.030Z,66.81
2022-09-30T17:33:42.203Z,67.38
2022-09-30T17:36:11.209Z,68.07
2022-09-30T17:38:38.513Z,69.19
2022-09-30T17:41:25.345Z,69.39
2022-09-30T17:43:51.935Z,70.19
2022-09-30T17:46:22.988Z,70.52
2022-09-30T17:48:51.961Z,71.55
2022-09-30T17:51:18.325Z,71.38
2022-09-30T17:53:45.380Z,70.94
2022-09-30T17:56:20.909Z,70.42
2022-09-30T17:58:49.023Z,70.66
2022-09-30T18:01:17.646Z,70.70
2022-09-30T18:03:45.697Z,70.57
2022-09-30T18:06:14.396Z,70.86
2022-09-30T18:08:41.047Z,72.00
2022-09-30T18:11:07.563Z,72.26
2022-09-30T18:13:34.033Z,72.05
2022-09-30T18:16:05.654Z,71.91
2022-09-30T18:18:34.158Z,72.15
2022-09-30T18:21:00.529Z,73.00
2022-09-30T18:23:27.927Z,72.83
2022-09-30T18:25:56.006Z,73.70
2022-09-30T18:28:22.476Z,73.98
2022-09-30T18:30:48.944Z,73.51
2022-09-30T18:33:17.207Z,73.76
2022-09-30T18:35:44.007Z,73.85
2022-09-30T18:38:13.509Z,73.21
2022-09-30T18:40:42.138Z,72.14
2022-09-30T18:43:13.863Z,72.83
2022-09-30T18:45:40.828Z,73.56
2022-09-30T18:48:08.302Z,74.26
2022-09-30T18:50:35.142Z,73.79
2022-09-30T18:53:09.499Z,74.74
2022-09-30T18:55:39.260Z,82.71
2022-09-30T18:58:06.223Z,75.44
2022-09-30T19:00:32.775Z,73.00
2022-09-30T19:02:59.249Z,72.44
2022-09-30T19:05:25.717Z,72.63
2022-09-30T19:07:53.451Z,72.22
2022-09-30T19:10:20.570Z,72.12
2022-09-30T19:12:47.055Z,73.04
2022-09-30T19:15:17.475Z,72.22
2022-09-30T19:17:45.060Z,73.87
2022-09-30T19:20:12.398Z,74.65
2022-09-30T19:22:38.789Z,75.65
2022-09-30T19:25:06.987Z,77.38
2022-09-30T19:27:35.941Z,77.21
2022-09-30T19:30:02.582Z,76.87
2022-09-30T19:32:34.200Z,74.99
2022-09-30T19:35:06.714Z,73.38
2022-09-30T19:37:34.297Z,73.08
2022-09-30T19:40:10.902Z,73.35
2022-09-30T19:42:42.603Z,74.01
2022-09-30T19:45:09.068Z,75.16
2022-09-30T19:47:36.470Z,75.28
2022-09-30T19:50:04.144Z,75.48
2022-09-30T19:52:30.605Z,74.39
2022-09-30T19:55:05.923Z,73.27
2022-09-30T19:57:37.613Z,72.60
2022-09-30T20:00:05.492Z,73.01
2022-09-30T20:02:35.900Z,73.55
2022-09-30T20:05:03.819Z,73.35
2022-09-30T20:07:30.254Z,74.80
2022-09-30T20:09:56.742Z,73.63
2022-09-30T20:12:23.824Z,74.23
2022-09-30T20:15:08.987Z,75.34
2022-09-30T20:17:35.841Z,77.38
2022-09-30T20:20:20.938Z,77.15
2022-09-30T20:22:47.383Z,76.55
2022-09-30T20:25:13.928Z,76.46
2022-09-30T20:27:42.814Z,76.53
2022-09-30T20:30:09.778Z,77.10
2022-09-30T20:32:36.158Z,76.60
2022-09-30T20:35:02.889Z,76.70
2022-09-30T20:37:30.385Z,76.24
2022-09-30T20:39:57.628Z,74.89
2022-09-30T20:42:25.551Z,75.23
2022-09-30T20:44:51.936Z,75.70
2022-09-30T20:47:18.526Z,74.97
2022-09-30T20:49:44.883Z,75.43
2022-09-30T20:52:11.454Z,75.83
2022-09-30T20:54:38.254Z,74.58
2022-09-30T20:57:08.170Z,75.82
2022-09-30T20:59:34.729Z,75.79
2022-09-30T21:02:01.179Z,76.56
2022-09-30T21:04:27.647Z,75.47
2022-09-30T21:06:54.267Z,74.67
2022-09-30T21:09:20.725Z,74.73
2022-09-30T21:11:47.147Z,74.96
2022-09-30T21:14:17.944Z,76.35
2022-09-30T21:16:44.362Z,76.44
2022-09-30T21:19:10.897Z,73.79
2022-09-30T21:21:37.262Z,74.34
2022-09-30T21:24:03.835Z,74.24
2022-09-30T21:26:30.358Z,75.33
2022-09-30T21:28:56.737Z,75.56
2022-09-30T21:31:26.715Z,74.58
2022-09-30T21:33:58.729Z,74.27
2022-09-30T21:36:27.046Z,74.60
2022-09-30T21:38:54.775Z,73.47
2022-09-30T21:41:21.368Z,74.48
2022-09-30T21:43:47.858Z,74.88
2022-09-30T21:46:15.465Z,75.47
2022-09-30T21:48:42.435Z,74.33
2022-09-30T21:51:09.813Z,74.40
2022-09-30T21:53:36.926Z,75.45
2022-09-30T21:56:04.521Z,76.16
2022-09-30T21:58:32.719Z,75.32
2022-09-30T22:01:01.876Z,74.71
2022-09-30T22:03:37.686Z,73.27
2022-09-30T22:06:07.314Z,74.40
2022-09-30T22:08:39.108Z,74.29
2022-09-30T22:11:11.082Z,74.73
2022-09-30T22:13:40.606Z,75.48
2022-09-30T22:16:07.697Z,75.75
2022-09-30T22:18:35.477Z,75.86
2022-09-30T22:21:13.288Z,75.28
2022-09-30T22:23:40.494Z,76.47
2022-09-30T22:26:17.229Z,76.92
2022-09-30T22:28:46.542Z,76.35
2022-09-30T22:31:19.846Z,76.56
2022-09-30T22:34:10.384Z,77.21
2022-09-30T22:36:56.121Z,76.89
2022-09-30T22:39:23.767Z,78.60
2022-09-30T22:41:52.986Z,79.37
2022-09-30T22:44:25.363Z,78.54
2022-09-30T22:46:53.234Z,78.22
2022-09-30T22:49:20.479Z,77.60
2022-09-30T22:51:51.285Z,77.31
2022-09-30T22:54:17.781Z,78.17
2022-09-30T22:56:44.610Z,79.67
2022-09-30T22:59:11.085Z,78.17
2022-09-30T23:01:37.492Z,78.92
2022-09-30T23:04:04.108Z,80.21
2022-09-30T23:06:32.267Z,79.92
2022-09-30T23:08:58.700Z,80.73
2022-09-30T23:11:25.951Z,79.88
2022-09-30T23:13:56.848Z,78.94
2022-09-30T23:16:26.119Z,78.94
2022-09-30T23:18:52.920Z,79.11
2022-09-30T23:21:20.451Z,79.10
2022-09-30T23:23:50.530Z,79.24
2022-09-30T23:26:28.213Z,79.38
2022-09-30T23:28:58.680Z,80.43
2022-09-30T23:31:25.464Z,79.91
2022-09-30T23:33:54.288Z,78.98
2022-09-30T23:36:26.396Z,78.81
2022-09-30T23:38:53.422Z,78.23
2022-09-30T23:41:20.321Z,78.32
2022-09-30T23:43:48.435Z,78.53
2022-09-30T23:46:17.046Z,77.78
2022-09-30T23:48:45.720Z,77.83
2022-09-30T23:51:13.394Z,77.20
2022-09-30T23:53:40.039Z,77.48
2022-09-30T23:56:10.181Z,76.88
2022-09-30T23:58:36.927Z,76.27
